sensor_id;sensor_type;location;lat;lon;timestamp;P1;durP1;ratioP1;P2;durP2;ratioP2
49296;SDS011;35163;48.878;18.040;2022-10-13T00:00:46;34.70;;;17.90;;
49296;SDS011;35163;48.878;18.040;2022-10-13T00:03:13;35.13;;;18.23;;
49296;SDS011;35163;48.878;18.040;2022-10-13T00:05:41;37.00;;;18.05;;
49296;SDS011;35163;48.878;18.040;2022-10-13T00:08:10;37.40;;;18.73;;
49296;SDS011;35163;48.878;18.040;2022-10-13T00:10:38;37.08;;;19.23;;
49296;SDS011;35163;48.878;18.040;2022-10-13T00:13:05;38.75;;;17.58;;
49296;SDS011;35163;48.878;18.040;2022-10-13T00:15:37;40.90;;;19.00;;
49296;SDS011;35163;48.878;18.040;2022-10-13T00:18:07;39.40;;;18.88;;
49296;SDS011;35163;48.878;18.040;2022-10-13T00:20:34;34.78;;;18.45;;
49296;SDS011;35163;48.878;18.040;2022-10-13T00:23:01;42.00;;;18.20;;
49296;SDS011;35163;48.878;18.040;2022-10-13T00:25:28;37.85;;;18.52;;
49296;SDS011;35163;48.878;18.040;2022-10-13T00:27:54;40.88;;;18.27;;
49296;SDS011;35163;48.878;18.040;2022-10-13T00:30:21;36.15;;;18.55;;
49296;SDS011;35163;48.878;18.040;2022-10-13T00:32:47;33.10;;;18.38;;
49296;SDS011;35163;48.878;18.040;2022-10-13T00:35:14;34.03;;;18.45;;
49296;SDS011;35163;48.878;18.040;2022-10-13T00:37:40;37.08;;;19.15;;
49296;SDS011;35163;48.878;18.040;2022-10-13T00:40:07;39.50;;;19.27;;
49296;SDS011;35163;48.878;18.040;2022-10-13T00:42:34;33.40;;;18.02;;
49296;SDS011;35163;48.878;18.040;2022-10-13T00:47:46;40.53;;;19.92;;
49296;SDS011;35163;48.878;18.040;2022-10-13T00:50:20;37.60;;;19.80;;
49296;SDS011;35163;48.878;18.040;2022-10-13T00:55:18;39.67;;;18.13;;
49296;SDS011;35163;48.878;18.040;2022-10-13T00:57:47;35.30;;;17.85;;
49296;SDS011;35163;48.878;18.040;2022-10-13T01:00:21;34.13;;;18.88;;
49296;SDS011;35163;48.878;18.040;2022-10-13T01:02:49;38.70;;;18.10;;
49296;SDS011;35163;48.878;18.040;2022-10-13T01:05:17;39.92;;;18.40;;
49296;SDS011;35163;48.878;18.040;2022-10-13T01:07:46;38.35;;;18.42;;
49296;SDS011;35163;48.878;18.040;2022-10-13T01:10:15;40.75;;;17.55;;
49296;SDS011;35163;48.878;18.040;2022-10-13T01:13:22;34.13;;;18.00;;
49296;SDS011;35163;48.878;18.040;2022-10-13T01:35:13;32.85;;;17.05;;
49296;SDS011;35163;48.878;18.040;2022-10-13T01:37:54;38.35;;;17.40;;
49296;SDS011;35163;48.878;18.040;2022-10-13T01:43:30;35.55;;;17.17;;
49296;SDS011;35163;48.878;18.040;2022-10-13T01:46:04;32.20;;;18.15;;
49296;SDS011;35163;48.878;18.040;2022-10-13T01:51:05;32.67;;;16.83;;
49296;SDS011;35163;48.878;18.040;2022-10-13T01:53:35;39.63;;;17.98;;
49296;SDS011;35163;48.878;18.040;2022-10-13T01:56:03;35.70;;;17.05;;
49296;SDS011;35163;48.878;18.040;2022-10-13T01:58:32;32.85;;;17.42;;
49296;SDS011;35163;48.878;18.040;2022-10-13T02:07:28;33.33;;;16.95;;
49296;SDS011;35163;48.878;18.040;2022-10-13T02:10:14;29.65;;;17.55;;
49296;SDS011;35163;48.878;18.040;2022-10-13T02:12:48;35.72;;;18.63;;
49296;SDS011;35163;48.878;18.040;2022-10-13T02:15:24;32.55;;;17.88;;
49296;SDS011;35163;48.878;18.040;2022-10-13T02:18:01;32.83;;;17.30;;
49296;SDS011;35163;48.878;18.040;2022-10-13T02:20:29;38.38;;;18.45;;
49296;SDS011;35163;48.878;18.040;2022-10-13T02:22:59;35.95;;;17.85;;
49296;SDS011;35163;48.878;18.040;2022-10-13T02:25:28;32.05;;;17.88;;
49296;SDS011;35163;48.878;18.040;2022-10-13T02:27:57;35.22;;;17.92;;
49296;SDS011;35163;48.878;18.040;2022-10-13T02:30:25;33.35;;;16.88;;
49296;SDS011;35163;48.878;18.040;2022-10-13T02:32:54;31.67;;;15.80;;
49296;SDS011;35163;48.878;18.040;2022-10-13T02:35:21;29.20;;;15.57;;
49296;SDS011;35163;48.878;18.040;2022-10-13T02:37:47;30.52;;;14.80;;
49296;SDS011;35163;48.878;18.040;2022-10-13T02:40:14;32.70;;;15.00;;
49296;SDS011;35163;48.878;18.040;2022-10-13T02:42:40;35.03;;;16.05;;
49296;SDS011;35163;48.878;18.040;2022-10-13T02:45:07;35.58;;;17.95;;
49296;SDS011;35163;48.878;18.040;2022-10-13T02:47:34;35.45;;;16.98;;
49296;SDS011;35163;48.878;18.040;2022-10-13T02:50:01;32.03;;;17.73;;
49296;SDS011;35163;48.878;18.040;2022-10-13T02:52:28;31.83;;;17.25;;
49296;SDS011;35163;48.878;18.040;2022-10-13T02:54:54;33.40;;;18.35;;
49296;SDS011;35163;48.878;18.040;2022-10-13T02:57:22;35.75;;;17.92;;
49296;SDS011;35163;48.878;18.040;2022-10-13T02:59:48;37.45;;;18.40;;
49296;SDS011;35163;48.878;18.040;2022-10-13T03:02:15;33.33;;;17.35;;
49296;SDS011;35163;48.878;18.040;2022-10-13T03:04:43;37.50;;;17.95;;
49296;SDS011;35163;48.878;18.040;2022-10-13T03:07:10;32.88;;;17.48;;
49296;SDS011;35163;48.878;18.040;2022-10-13T03:09:36;34.35;;;16.80;;
49296;SDS011;35163;48.878;18.040;2022-10-13T03:12:03;34.83;;;18.55;;
49296;SDS011;35163;48.878;18.040;2022-10-13T03:14:30;34.15;;;17.08;;
49296;SDS011;35163;48.878;18.040;2022-10-13T03:16:56;34.30;;;17.23;;
49296;SDS011;35163;48.878;18.040;2022-10-13T03:19:23;32.30;;;17.48;;
49296;SDS011;35163;48.878;18.040;2022-10-13T03:21:49;36.28;;;18.10;;
49296;SDS011;35163;48.878;18.040;2022-10-13T03:24:16;40.65;;;16.80;;
49296;SDS011;35163;48.878;18.040;2022-10-13T03:26:43;34.55;;;17.50;;
49296;SDS011;35163;48.878;18.040;2022-10-13T03:29:13;37.15;;;17.52;;
49296;SDS011;35163;48.878;18.040;2022-10-13T03:31:41;30.75;;;15.63;;
49296;SDS011;35163;48.878;18.040;2022-10-13T03:34:08;36.22;;;18.35;;
49296;SDS011;35163;48.878;18.040;2022-10-13T03:36:35;34.20;;;17.52;;
49296;SDS011;35163;48.878;18.040;2022-10-13T03:39:02;38.70;;;17.35;;
49296;SDS011;35163;48.878;18.040;2022-10-13T03:41:28;29.65;;;16.42;;
49296;SDS011;35163;48.878;18.040;2022-10-13T03:43:55;33.03;;;16.58;;
49296;SDS011;35163;48.878;18.040;2022-10-13T03:46:22;36.88;;;16.52;;
49296;SDS011;35163;48.878;18.040;2022-10-13T03:48:51;40.97;;;15.05;;
49296;SDS011;35163;48.878;18.040;2022-10-13T03:51:18;40.50;;;15.15;;
49296;SDS011;35163;48.878;18.040;2022-10-13T03:53:46;34.40;;;15.13;;
49296;SDS011;35163;48.878;18.040;2022-10-13T03:56:15;42.20;;;16.30;;
49296;SDS011;35163;48.878;18.040;2022-10-13T04:01:20;34.95;;;15.27;;
49296;SDS011;35163;48.878;18.040;2022-10-13T04:03:48;37.80;;;16.42;;
49296;SDS011;35163;48.878;18.040;2022-10-13T04:06:15;37.53;;;17.67;;
49296;SDS011;35163;48.878;18.040;2022-10-13T04:08:42;35.80;;;18.15;;
49296;SDS011;35163;48.878;18.040;2022-10-13T04:11:10;33.65;;;18.13;;
49296;SDS011;35163;48.878;18.040;2022-10-13T04:13:39;35.03;;;17.02;;
49296;SDS011;35163;48.878;18.040;2022-10-13T04:16:16;34.33;;;14.88;;
49296;SDS011;35163;48.878;18.040;2022-10-13T04:18:48;35.75;;;16.67;;
49296;SDS011;35163;48.878;18.040;2022-10-13T04:21:20;34.45;;;15.38;;
49296;SDS011;35163;48.878;18.040;2022-10-13T04:23:47;32.35;;;16.05;;
49296;SDS011;35163;48.878;18.040;2022-10-13T04:26:16;35.75;;;16.77;;
49296;SDS011;35163;48.878;18.040;2022-10-13T04:28:47;31.88;;;16.75;;
49296;SDS011;35163;48.878;18.040;2022-10-13T04:31:15;29.92;;;16.15;;
49296;SDS011;35163;48.878;18.040;2022-10-13T04:33:42;33.75;;;16.98;;
49296;SDS011;35163;48.878;18.040;2022-10-13T04:36:10;27.25;;;15.68;;
49296;SDS011;35163;48.878;18.040;2022-10-13T04:38:38;39.35;;;17.33;;
49296;SDS011;35163;48.878;18.040;2022-10-13T04:41:05;32.65;;;16.05;;
49296;SDS011;35163;48.878;18.040;2022-10-13T04:43:33;31.60;;;14.32;;
49296;SDS011;35163;48.878;18.040;2022-10-13T04:46:05;31.38;;;13.32;;
49296;SDS011;35163;48.878;18.040;2022-10-13T04:48:35;46.92;;;16.13;;
49296;SDS011;35163;48.878;18.040;2022-10-13T04:51:02;29.63;;;15.90;;
49296;SDS011;35163;48.878;18.040;2022-10-13T04:53:32;36.38;;;16.23;;
49296;SDS011;35163;48.878;18.040;2022-10-13T04:55:59;32.03;;;15.60;;
49296;SDS011;35163;48.878;18.040;2022-10-13T04:58:31;28.80;;;14.90;;
49296;SDS011;35163;48.878;18.040;2022-10-13T05:00:58;30.52;;;15.43;;
49296;SDS011;35163;48.878;18.040;2022-10-13T05:03:25;33.38;;;15.23;;
49296;SDS011;35163;48.878;18.040;2022-10-13T05:05:51;34.22;;;16.83;;
49296;SDS011;35163;48.878;18.040;2022-10-13T05:08:18;28.83;;;15.88;;
49296;SDS011;35163;48.878;18.040;2022-10-13T05:10:55;32.10;;;14.68;;
49296;SDS011;35163;48.878;18.040;2022-10-13T05:13:23;36.65;;;15.52;;
49296;SDS011;35163;48.878;18.040;2022-10-13T05:15:51;33.50;;;15.82;;
49296;SDS011;35163;48.878;18.040;2022-10-13T05:18:17;32.90;;;16.83;;
49296;SDS011;35163;48.878;18.040;2022-10-13T05:20:44;33.53;;;15.52;;
49296;SDS011;35163;48.878;18.040;2022-10-13T05:23:12;32.42;;;14.57;;
49296;SDS011;35163;48.878;18.040;2022-10-13T05:25:40;34.15;;;14.77;;
49296;SDS011;35163;48.878;18.040;2022-10-13T05:28:07;40.25;;;16.63;;
49296;SDS011;35163;48.878;18.040;2022-10-13T05:30:36;33.28;;;16.23;;
49296;SDS011;35163;48.878;18.040;2022-10-13T05:33:02;34.65;;;15.55;;
49296;SDS011;35163;48.878;18.040;2022-10-13T05:35:29;30.67;;;16.80;;
49296;SDS011;35163;48.878;18.040;2022-10-13T05:37:56;31.65;;;15.70;;
49296;SDS011;35163;48.878;18.040;2022-10-13T05:40:22;26.95;;;15.38;;
49296;SDS011;35163;48.878;18.040;2022-10-13T05:42:49;37.15;;;15.68;;
49296;SDS011;35163;48.878;18.040;2022-10-13T05:45:16;47.40;;;27.02;;
49296;SDS011;35163;48.878;18.040;2022-10-13T05:47:44;49.53;;;25.58;;
49296;SDS011;35163;48.878;18.040;2022-10-13T05:50:11;44.05;;;22.35;;
49296;SDS011;35163;48.878;18.040;2022-10-13T05:52:38;34.33;;;16.02;;
49296;SDS011;35163;48.878;18.040;2022-10-13T05:55:05;37.70;;;14.52;;
49296;SDS011;35163;48.878;18.040;2022-10-13T05:57:56;29.85;;;12.85;;
49296;SDS011;35163;48.878;18.040;2022-10-13T06:00:22;35.92;;;15.23;;
49296;SDS011;35163;48.878;18.040;2022-10-13T06:02:51;26.10;;;13.10;;
49296;SDS011;35163;48.878;18.040;2022-10-13T06:05:23;28.48;;;14.27;;
49296;SDS011;35163;48.878;18.040;2022-10-13T06:07:52;109.03;;;18.15;;
49296;SDS011;35163;48.878;18.040;2022-10-13T06:10:20;38.85;;;16.33;;
49296;SDS011;35163;48.878;18.040;2022-10-13T06:12:48;40.88;;;15.82;;
49296;SDS011;35163;48.878;18.040;2022-10-13T06:15:15;41.60;;;15.85;;
49296;SDS011;35163;48.878;18.040;2022-10-13T06:17:42;27.35;;;13.48;;
49296;SDS011;35163;48.878;18.040;2022-10-13T06:20:09;30.40;;;13.70;;
49296;SDS011;35163;48.878;18.040;2022-10-13T06:22:36;236.02;;;26.25;;
49296;SDS011;35163;48.878;18.040;2022-10-13T06:25:04;95.03;;;18.42;;
49296;SDS011;35163;48.878;18.040;2022-10-13T06:27:32;35.83;;;13.63;;
49296;SDS011;35163;48.878;18.040;2022-10-13T06:29:59;25.80;;;13.30;;
49296;SDS011;35163;48.878;18.040;2022-10-13T06:32:26;46.78;;;13.05;;
49296;SDS011;35163;48.878;18.040;2022-10-13T06:34:52;73.78;;;15.73;;
49296;SDS011;35163;48.878;18.040;2022-10-13T06:37:20;30.55;;;13.23;;
49296;SDS011;35163;48.878;18.040;2022-10-13T06:39:52;29.55;;;12.82;;
49296;SDS011;35163;48.878;18.040;2022-10-13T06:42:19;23.88;;;12.55;;
49296;SDS011;35163;48.878;18.040;2022-10-13T06:44:46;27.50;;;11.65;;
49296;SDS011;35163;48.878;18.040;2022-10-13T06:47:13;38.67;;;13.00;;
49296;SDS011;35163;48.878;18.040;2022-10-13T06:49:39;30.35;;;13.32;;
49296;SDS011;35163;48.878;18.040;2022-10-13T06:52:06;35.58;;;13.55;;
49296;SDS011;35163;48.878;18.040;2022-10-13T06:54:33;33.80;;;13.43;;
49296;SDS011;35163;48.878;18.040;2022-10-13T06:57:00;25.13;;;13.15;;
49296;SDS011;35163;48.878;18.040;2022-10-13T06:59:26;27.23;;;13.70;;
49296;SDS011;35163;48.878;18.040;2022-10-13T07:01:53;27.58;;;12.13;;
49296;SDS011;35163;48.878;18.040;2022-10-13T07:04:20;29.58;;;13.02;;
49296;SDS011;35163;48.878;18.040;2022-10-13T07:06:48;32.58;;;14.65;;
49296;SDS011;35163;48.878;18.040;2022-10-13T07:09:16;29.73;;;13.55;;
49296;SDS011;35163;48.878;18.040;2022-10-13T07:11:43;24.88;;;12.60;;
49296;SDS011;35163;48.878;18.040;2022-10-13T07:14:11;30.38;;;13.68;;
49296;SDS011;35163;48.878;18.040;2022-10-13T07:16:38;27.75;;;12.45;;
49296;SDS011;35163;48.878;18.040;2022-10-13T07:19:05;26.08;;;12.38;;
49296;SDS011;35163;48.878;18.040;2022-10-13T07:21:32;25.42;;;12.32;;
49296;SDS011;35163;48.878;18.040;2022-10-13T07:24:00;32.90;;;12.48;;
49296;SDS011;35163;48.878;18.040;2022-10-13T07:26:27;26.58;;;11.63;;
49296;SDS011;35163;48.878;18.040;2022-10-13T07:28:54;28.88;;;12.02;;
49296;SDS011;35163;48.878;18.040;2022-10-13T07:31:21;88.05;;;16.33;;
49296;SDS011;35163;48.878;18.040;2022-10-13T07:33:48;38.85;;;12.63;;
49296;SDS011;35163;48.878;18.040;2022-10-13T07:36:17;31.20;;;14.77;;
49296;SDS011;35163;48.878;18.040;2022-10-13T07:38:44;36.80;;;13.23;;
49296;SDS011;35163;48.878;18.040;2022-10-13T07:41:11;31.00;;;14.70;;
49296;SDS011;35163;48.878;18.040;2022-10-13T07:43:39;31.73;;;13.30;;
49296;SDS011;35163;48.878;18.040;2022-10-13T07:46:06;27.40;;;12.27;;
49296;SDS011;35163;48.878;18.040;2022-10-13T07:48:34;32.78;;;13.90;;
49296;SDS011;35163;48.878;18.040;2022-10-13T07:51:04;24.63;;;11.98;;
49296;SDS011;35163;48.878;18.040;2022-10-13T07:53:35;33.05;;;11.93;;
49296;SDS011;35163;48.878;18.040;2022-10-13T07:56:03;29.00;;;13.43;;
49296;SDS011;35163;48.878;18.040;2022-10-13T07:58:31;26.55;;;12.32;;
49296;SDS011;35163;48.878;18.040;2022-10-13T08:00:59;25.63;;;12.45;;
49296;SDS011;35163;48.878;18.040;2022-10-13T08:03:27;23.80;;;11.98;;
49296;SDS011;35163;48.878;18.040;2022-10-13T08:05:54;22.38;;;11.90;;
49296;SDS011;35163;48.878;18.040;2022-10-13T08:08:24;23.85;;;10.88;;
49296;SDS011;35163;48.878;18.040;2022-10-13T08:10:50;21.75;;;11.60;;
49296;SDS011;35163;48.878;18.040;2022-10-13T08:13:22;24.50;;;10.65;;
49296;SDS011;35163;48.878;18.040;2022-10-13T08:15:49;24.38;;;11.52;;
49296;SDS011;35163;48.878;18.040;2022-10-13T08:18:15;22.55;;;11.15;;
49296;SDS011;35163;48.878;18.040;2022-10-13T08:20:43;26.25;;;12.25;;
49296;SDS011;35163;48.878;18.040;2022-10-13T08:23:11;28.10;;;12.50;;
49296;SDS011;35163;48.878;18.040;2022-10-13T08:25:39;30.75;;;10.93;;
49296;SDS011;35163;48.878;18.040;2022-10-13T08:28:16;21.95;;;9.77;;
49296;SDS011;35163;48.878;18.040;2022-10-13T08:30:45;25.40;;;12.15;;
49296;SDS011;35163;48.878;18.040;2022-10-13T08:33:12;26.23;;;11.82;;
49296;SDS011;35163;48.878;18.040;2022-10-13T08:35:39;19.38;;;9.77;;
49296;SDS011;35163;48.878;18.040;2022-10-13T08:38:07;24.90;;;11.38;;
49296;SDS011;35163;48.878;18.040;2022-10-13T08:40:35;19.13;;;9.82;;
49296;SDS011;35163;48.878;18.040;2022-10-13T08:43:06;26.00;;;10.45;;
49296;SDS011;35163;48.878;18.040;2022-10-13T08:45:33;24.45;;;10.48;;
49296;SDS011;35163;48.878;18.040;2022-10-13T08:48:23;22.17;;;9.90;;
49296;SDS011;35163;48.878;18.040;2022-10-13T08:50:54;25.20;;;10.35;;
49296;SDS011;35163;48.878;18.040;2022-10-13T08:53:27;25.85;;;11.13;;
49296;SDS011;35163;48.878;18.040;2022-10-13T08:55:57;21.13;;;10.48;;
49296;SDS011;35163;48.878;18.040;2022-10-13T08:58:27;28.15;;;12.13;;
49296;SDS011;35163;48.878;18.040;2022-10-13T09:00:59;22.20;;;10.20;;
49296;SDS011;35163;48.878;18.040;2022-10-13T09:06:35;24.50;;;10.32;;
49296;SDS011;35163;48.878;18.040;2022-10-13T09:09:11;28.42;;;10.70;;
49296;SDS011;35163;48.878;18.040;2022-10-13T09:11:41;25.05;;;10.68;;
49296;SDS011;35163;48.878;18.040;2022-10-13T09:14:23;24.83;;;10.50;;
49296;SDS011;35163;48.878;18.040;2022-10-13T09:16:55;26.63;;;11.35;;
49296;SDS011;35163;48.878;18.040;2022-10-13T09:19:38;23.05;;;10.55;;
49296;SDS011;35163;48.878;18.040;2022-10-13T09:22:22;22.42;;;10.35;;
49296;SDS011;35163;48.878;18.040;2022-10-13T09:27:46;22.02;;;11.15;;
49296;SDS011;35163;48.878;18.040;2022-10-13T09:33:05;25.58;;;12.30;;
49296;SDS011;35163;48.878;18.040;2022-10-13T09:35:45;26.40;;;12.85;;
49296;SDS011;35163;48.878;18.040;2022-10-13T09:38:22;23.42;;;10.77;;
49296;SDS011;35163;48.878;18.040;2022-10-13T09:40:58;26.52;;;12.07;;
49296;SDS011;35163;48.878;18.040;2022-10-13T09:43:31;21.30;;;10.95;;
49296;SDS011;35163;48.878;18.040;2022-10-13T09:46:00;23.52;;;10.85;;
49296;SDS011;35163;48.878;18.040;2022-10-13T09:48:31;26.38;;;11.82;;
49296;SDS011;35163;48.878;18.040;2022-10-13T09:51:00;25.55;;;10.75;;
49296;SDS011;35163;48.878;18.040;2022-10-13T09:53:37;21.90;;;11.02;;
49296;SDS011;35163;48.878;18.040;2022-10-13T09:56:14;25.38;;;12.60;;
49296;SDS011;35163;48.878;18.040;2022-10-13T10:01:42;21.40;;;11.00;;
49296;SDS011;35163;48.878;18.040;2022-10-13T10:04:21;25.75;;;11.73;;
49296;SDS011;35163;48.878;18.040;2022-10-13T10:06:51;30.20;;;13.40;;
49296;SDS011;35163;48.878;18.040;2022-10-13T10:09:21;25.77;;;12.35;;
49296;SDS011;35163;48.878;18.040;2022-10-13T10:11:59;23.30;;;13.10;;
49296;SDS011;35163;48.878;18.040;2022-10-13T10:14:31;20.67;;;11.05;;
49296;SDS011;35163;48.878;18.040;2022-10-13T10:19:56;21.60;;;10.45;;
49296;SDS011;35163;48.878;18.040;2022-10-13T10:22:29;29.95;;;11.25;;
49296;SDS011;35163;48.878;18.040;2022-10-13T10:28:46;23.25;;;10.80;;
49296;SDS011;35163;48.878;18.040;2022-10-13T10:34:03;28.38;;;10.60;;
49296;SDS011;35163;48.878;18.040;2022-10-13T10:36:52;23.63;;;11.40;;
49296;SDS011;35163;48.878;18.040;2022-10-13T10:39:31;24.77;;;10.63;;
49296;SDS011;35163;48.878;18.040;2022-10-13T10:44:39;21.00;;;11.10;;
49296;SDS011;35163;48.878;18.040;2022-10-13T10:47:20;24.55;;;12.32;;
49296;SDS011;35163;48.878;18.040;2022-10-13T10:49:54;23.92;;;12.23;;
49296;SDS011;35163;48.878;18.040;2022-10-13T10:52:28;22.45;;;11.18;;
49296;SDS011;35163;48.878;18.040;2022-10-13T10:55:24;21.40;;;11.20;;
49296;SDS011;35163;48.878;18.040;2022-10-13T11:00:58;19.27;;;10.60;;
49296;SDS011;35163;48.878;18.040;2022-10-13T11:06:22;22.73;;;12.00;;
49296;SDS011;35163;48.878;18.040;2022-10-13T11:08:59;29.45;;;12.15;;
49296;SDS011;35163;48.878;18.040;2022-10-13T11:19:33;25.55;;;11.57;;
49296;SDS011;35163;48.878;18.040;2022-10-13T11:54:49;23.15;;;11.90;;
49296;SDS011;35163;48.878;18.040;2022-10-13T11:57:21;25.95;;;12.43;;
49296;SDS011;35163;48.878;18.040;2022-10-13T11:59:51;23.55;;;11.68;;
49296;SDS011;35163;48.878;18.040;2022-10-13T12:02:21;25.67;;;11.15;;
49296;SDS011;35163;48.878;18.040;2022-10-13T12:05:00;23.63;;;11.73;;
49296;SDS011;35163;48.878;18.040;2022-10-13T12:07:34;19.40;;;11.88;;
49296;SDS011;35163;48.878;18.040;2022-10-13T12:10:04;24.13;;;11.10;;
49296;SDS011;35163;48.878;18.040;2022-10-13T12:12:33;23.95;;;11.02;;
49296;SDS011;35163;48.878;18.040;2022-10-13T12:14:59;27.55;;;11.20;;
49296;SDS011;35163;48.878;18.040;2022-10-13T12:17:32;24.52;;;10.65;;
49296;SDS011;35163;48.878;18.040;2022-10-13T12:20:20;20.60;;;9.93;;
49296;SDS011;35163;48.878;18.040;2022-10-13T12:22:49;20.52;;;9.95;;
49296;SDS011;35163;48.878;18.040;2022-10-13T12:25:17;26.40;;;11.80;;
49296;SDS011;35163;48.878;18.040;2022-10-13T12:27:47;26.10;;;12.07;;
49296;SDS011;35163;48.878;18.040;2022-10-13T12:30:19;19.60;;;10.48;;
49296;SDS011;35163;48.878;18.040;2022-10-13T12:32:47;22.08;;;11.25;;
49296;SDS011;35163;48.878;18.040;2022-10-13T12:35:20;21.25;;;11.60;;
49296;SDS011;35163;48.878;18.040;2022-10-13T12:37:50;18.40;;;10.32;;
49296;SDS011;35163;48.878;18.040;2022-10-13T12:40:18;17.02;;;10.23;;
49296;SDS011;35163;48.878;18.040;2022-10-13T12:42:45;26.70;;;11.95;;
49296;SDS011;35163;48.878;18.040;2022-10-13T12:45:20;20.90;;;11.23;;
49296;SDS011;35163;48.878;18.040;2022-10-13T12:47:50;23.63;;;12.05;;
49296;SDS011;35163;48.878;18.040;2022-10-13T12:50:19;26.48;;;12.85;;
49296;SDS011;35163;48.878;18.040;2022-10-13T12:53:00;20.20;;;11.57;;
49296;SDS011;35163;48.878;18.040;2022-10-13T12:55:30;25.70;;;11.93;;
49296;SDS011;35163;48.878;18.040;2022-10-13T12:57:58;27.92;;;13.00;;
49296;SDS011;35163;48.878;18.040;2022-10-13T13:00:26;26.65;;;11.85;;
49296;SDS011;35163;48.878;18.040;2022-10-13T13:02:55;25.77;;;11.45;;
49296;SDS011;35163;48.878;18.040;2022-10-13T13:08:04;22.38;;;11.40;;
49296;SDS011;35163;48.878;18.040;2022-10-13T13:10:56;22.92;;;11.93;;
49296;SDS011;35163;48.878;18.040;2022-10-13T13:13:23;22.17;;;11.98;;
49296;SDS011;35163;48.878;18.040;2022-10-13T13:15:50;20.33;;;12.18;;
49296;SDS011;35163;48.878;18.040;2022-10-13T13:18:28;21.15;;;11.70;;
49296;SDS011;35163;48.878;18.040;2022-10-13T13:20:57;20.90;;;11.60;;
49296;SDS011;35163;48.878;18.040;2022-10-13T13:23:23;22.95;;;11.77;;
49296;SDS011;35163;48.878;18.040;2022-10-13T13:28:52;25.85;;;11.75;;
49296;SDS011;35163;48.878;18.040;2022-10-13T13:31:21;23.30;;;10.48;;
49296;SDS011;35163;48.878;18.040;2022-10-13T13:33:49;19.65;;;11.98;;
49296;SDS011;35163;48.878;18.040;2022-10-13T13:38:44;23.00;;;12.00;;
49296;SDS011;35163;48.878;18.040;2022-10-13T13:41:10;24.08;;;13.38;;
49296;SDS011;35163;48.878;18.040;2022-10-13T13:43:37;24.95;;;11.65;;
49296;SDS011;35163;48.878;18.040;2022-10-13T13:46:05;20.08;;;11.23;;
49296;SDS011;35163;48.878;18.040;2022-10-13T13:48:36;30.95;;;12.90;;
49296;SDS011;35163;48.878;18.040;2022-10-13T13:51:03;20.33;;;12.10;;
49296;SDS011;35163;48.878;18.040;2022-10-13T13:53:29;20.75;;;11.18;;
49296;SDS011;35163;48.878;18.040;2022-10-13T13:55:56;22.42;;;11.23;;
49296;SDS011;35163;48.878;18.040;2022-10-13T13:58:22;20.92;;;11.23;;
49296;SDS011;35163;48.878;18.040;2022-10-13T14:00:49;20.50;;;11.25;;
49296;SDS011;35163;48.878;18.040;2022-10-13T14:03:16;24.83;;;11.13;;
49296;SDS011;35163;48.878;18.040;2022-10-13T14:05:44;22.55;;;12.30;;
49296;SDS011;35163;48.878;18.040;2022-10-13T14:08:11;24.23;;;11.48;;
49296;SDS011;35163;48.878;18.040;2022-10-13T14:10:38;18.13;;;10.70;;
49296;SDS011;35163;48.878;18.040;2022-10-13T14:13:05;25.42;;;11.68;;
49296;SDS011;35163;48.878;18.040;2022-10-13T14:15:32;25.45;;;11.93;;
49296;SDS011;35163;48.878;18.040;2022-10-13T14:17:59;21.63;;;11.93;;
49296;SDS011;35163;48.878;18.040;2022-10-13T14:20:26;21.10;;;12.63;;
49296;SDS011;35163;48.878;18.040;2022-10-13T14:22:53;20.55;;;11.27;;
49296;SDS011;35163;48.878;18.040;2022-10-13T14:25:19;18.25;;;12.30;;
49296;SDS011;35163;48.878;18.040;2022-10-13T14:27:46;23.90;;;11.70;;
49296;SDS011;35163;48.878;18.040;2022-10-13T14:30:13;24.23;;;13.07;;
49296;SDS011;35163;48.878;18.040;2022-10-13T14:32:40;30.00;;;15.57;;
49296;SDS011;35163;48.878;18.040;2022-10-13T14:35:07;36.05;;;16.92;;
49296;SDS011;35163;48.878;18.040;2022-10-13T14:37:34;25.77;;;13.50;;
49296;SDS011;35163;48.878;18.040;2022-10-13T14:40:01;22.35;;;12.40;;
49296;SDS011;35163;48.878;18.040;2022-10-13T14:42:28;20.30;;;12.10;;
49296;SDS011;35163;48.878;18.040;2022-10-13T14:44:54;23.10;;;13.07;;
49296;SDS011;35163;48.878;18.040;2022-10-13T14:47:21;21.02;;;12.82;;
49296;SDS011;35163;48.878;18.040;2022-10-13T14:49:48;23.00;;;11.98;;
49296;SDS011;35163;48.878;18.040;2022-10-13T14:52:14;24.30;;;13.02;;
49296;SDS011;35163;48.878;18.040;2022-10-13T14:54:41;26.17;;;13.50;;
49296;SDS011;35163;48.878;18.040;2022-10-13T14:57:10;23.42;;;13.40;;
49296;SDS011;35163;48.878;18.040;2022-10-13T14:59:41;26.45;;;12.13;;
49296;SDS011;35163;48.878;18.040;2022-10-13T15:02:12;18.63;;;11.82;;
49296;SDS011;35163;48.878;18.040;2022-10-13T15:04:39;23.83;;;13.00;;
49296;SDS011;35163;48.878;18.040;2022-10-13T15:07:05;23.77;;;12.10;;
49296;SDS011;35163;48.878;18.040;2022-10-13T15:09:32;22.52;;;11.65;;
49296;SDS011;35163;48.878;18.040;2022-10-13T15:12:18;22.35;;;13.60;;
49296;SDS011;35163;48.878;18.040;2022-10-13T15:14:45;24.48;;;14.30;;
49296;SDS011;35163;48.878;18.040;2022-10-13T15:17:12;18.25;;;11.55;;
49296;SDS011;35163;48.878;18.040;2022-10-13T15:19:38;32.33;;;14.23;;
49296;SDS011;35163;48.878;18.040;2022-10-13T15:22:05;26.27;;;13.73;;
49296;SDS011;35163;48.878;18.040;2022-10-13T15:24:31;21.67;;;11.38;;
49296;SDS011;35163;48.878;18.040;2022-10-13T15:26:58;25.88;;;13.43;;
49296;SDS011;35163;48.878;18.040;2022-10-13T15:29:24;25.67;;;13.77;;
49296;SDS011;35163;48.878;18.040;2022-10-13T15:31:51;28.58;;;13.25;;
49296;SDS011;35163;48.878;18.040;2022-10-13T15:34:17;23.23;;;14.18;;
49296;SDS011;35163;48.878;18.040;2022-10-13T15:36:44;26.10;;;14.02;;
49296;SDS011;35163;48.878;18.040;2022-10-13T15:39:11;25.85;;;14.50;;
49296;SDS011;35163;48.878;18.040;2022-10-13T15:41:37;26.38;;;13.52;;
49296;SDS011;35163;48.878;18.040;2022-10-13T15:44:04;25.85;;;14.45;;
49296;SDS011;35163;48.878;18.040;2022-10-13T15:46:30;26.38;;;14.63;;
49296;SDS011;35163;48.878;18.040;2022-10-13T15:48:57;25.25;;;14.52;;
49296;SDS011;35163;48.878;18.040;2022-10-13T15:51:25;25.17;;;14.25;;
49296;SDS011;35163;48.878;18.040;2022-10-13T15:53:52;30.77;;;16.05;;
49296;SDS011;35163;48.878;18.040;2022-10-13T15:56:20;31.25;;;17.50;;
49296;SDS011;35163;48.878;18.040;2022-10-13T15:58:46;31.35;;;15.85;;
49296;SDS011;35163;48.878;18.040;2022-10-13T16:01:13;28.13;;;16.13;;
49296;SDS011;35163;48.878;18.040;2022-10-13T16:03:40;27.05;;;17.23;;
49296;SDS011;35163;48.878;18.040;2022-10-13T16:06:08;34.13;;;18.52;;
49296;SDS011;35163;48.878;18.040;2022-10-13T16:08:37;27.70;;;15.43;;
49296;SDS011;35163;48.878;18.040;2022-10-13T16:11:08;26.92;;;16.92;;
49296;SDS011;35163;48.878;18.040;2022-10-13T16:13:43;27.13;;;14.73;;
49296;SDS011;35163;48.878;18.040;2022-10-13T16:16:12;28.90;;;15.70;;
49296;SDS011;35163;48.878;18.040;2022-10-13T16:18:39;28.92;;;15.27;;